Manson, Iowa
Current Conditions -  °F | °C
As of 8:15 AM on Friday 24 Oct 2014 (Local Time) from KFOD Reporting Station
Overcast Overcast  
Wind Chill: 55°   Ceiling: 200
Heat Index: 55°   Visibility: 0.5mi
Dew Point: 54°   Wind: 9mph
Humidity: 94%   Direction: 200°SSW
Pressure: 29.92"   Gusts: 18mph
Location:  42.53°N, 94.53°W
Report Text: KFOD 241315Z AUTO 20008G16KT 160V220 1/2SM OVC002 13/12 A2992 RMK AO1
Loading
Personal Weather Stations






























Interactive Weather Map
Tropical Storm Tracking
New forecast layout! Learn more

10-Day Weather Forecast

Advertisements
Track Severe Weather on mobile